createdAt,value
2022-11-14T00:00:43.583Z,82.95
2022-11-14T00:01:45.127Z,82.70
2022-11-14T00:02:46.707Z,82.88
2022-11-14T00:03:51.086Z,82.85
2022-11-14T00:04:52.642Z,83.14
2022-11-14T00:05:54.201Z,81.88
2022-11-14T00:06:55.776Z,82.71
2022-11-14T00:07:57.549Z,82.26
2022-11-14T00:08:59.061Z,83.05
2022-11-14T00:10:00.965Z,82.83
2022-11-14T00:11:02.643Z,82.88
2022-11-14T00:12:04.790Z,82.16
2022-11-14T00:13:06.342Z,82.47
2022-11-14T00:14:09.370Z,82.78
2022-11-14T00:15:11.476Z,83.43
2022-11-14T00:16:13.026Z,84.28
2022-11-14T00:17:14.769Z,83.53
2022-11-14T00:18:16.934Z,83.70
2022-11-14T00:19:18.556Z,84.21
2022-11-14T00:20:20.242Z,85.12
2022-11-14T00:21:21.797Z,84.69
2022-11-14T00:22:23.331Z,85.49
2022-11-14T00:23:24.913Z,84.92
2022-11-14T00:24:26.524Z,85.91
2022-11-14T00:25:28.127Z,84.96
2022-11-14T00:26:29.916Z,85.14
2022-11-14T00:27:31.416Z,84.88
2022-11-14T00:28:33.169Z,85.07
2022-11-14T00:29:34.875Z,84.57
2022-11-14T00:30:36.395Z,84.75
2022-11-14T00:31:37.983Z,83.94
2022-11-14T00:32:39.599Z,84.83
2022-11-14T00:33:41.592Z,84.94
2022-11-14T00:34:43.349Z,84.85
2022-11-14T00:35:54.429Z,85.54
2022-11-14T00:36:55.953Z,85.92
2022-11-14T00:37:57.490Z,85.30
2022-11-14T00:38:59.343Z,85.55
2022-11-14T00:40:00.896Z,84.94
2022-11-14T00:41:02.603Z,85.49
2022-11-14T00:42:04.326Z,84.69
2022-11-14T00:43:05.821Z,84.82
2022-11-14T00:44:08.237Z,84.62
2022-11-14T00:45:10.416Z,85.62
2022-11-14T00:46:12.276Z,86.56
2022-11-14T00:47:14.992Z,88.40
2022-11-14T00:48:16.633Z,88.58
2022-11-14T00:49:18.202Z,88.23
2022-11-14T00:50:19.751Z,87.55
2022-11-14T00:51:21.271Z,88.03
2022-11-14T00:52:22.776Z,87.17
2022-11-14T00:53:24.298Z,86.50
2022-11-14T00:54:26.743Z,86.20
2022-11-14T00:55:28.286Z,87.12
2022-11-14T00:56:29.855Z,87.80
2022-11-14T00:57:31.414Z,88.25
2022-11-14T00:58:33.215Z,88.80
2022-11-14T00:59:34.884Z,90.33
2022-11-14T01:00:37.118Z,89.85
2022-11-14T01:01:38.765Z,89.07
2022-11-14T01:02:40.483Z,90.08
2022-11-14T01:03:42.061Z,88.84
2022-11-14T01:04:43.653Z,87.88
2022-11-14T01:05:47.857Z,87.94
2022-11-14T01:06:49.400Z,86.86
2022-11-14T01:07:50.978Z,86.50
2022-11-14T01:08:52.916Z,86.37
2022-11-14T01:09:54.436Z,86.02
2022-11-14T01:10:55.947Z,84.81
2022-11-14T01:11:57.535Z,84.76
2022-11-14T01:12:59.088Z,84.21
2022-11-14T01:14:00.612Z,84.94
2022-11-14T01:15:02.127Z,84.98
2022-11-14T01:16:03.835Z,85.03
2022-11-14T01:17:05.437Z,85.22
2022-11-14T01:18:06.967Z,85.40
2022-11-14T01:19:09.112Z,85.86
2022-11-14T01:20:10.835Z,85.93
2022-11-14T01:21:13.632Z,85.86
2022-11-14T01:22:15.151Z,86.63
2022-11-14T01:23:17.289Z,85.87
2022-11-14T01:24:18.893Z,85.46
2022-11-14T01:25:20.438Z,86.58
2022-11-14T01:26:22.062Z,85.74
2022-11-14T01:27:23.809Z,86.30
2022-11-14T01:28:25.366Z,86.00
2022-11-14T01:29:27.037Z,85.82
2022-11-14T01:30:28.623Z,85.70
2022-11-14T01:31:30.184Z,86.04
2022-11-14T01:32:31.752Z,85.12
2022-11-14T01:33:33.324Z,85.03
2022-11-14T01:34:34.838Z,84.47
2022-11-14T01:35:38.273Z,84.12
2022-11-14T01:36:39.777Z,83.44
2022-11-14T01:37:41.347Z,82.97
2022-11-14T01:38:42.891Z,82.67
2022-11-14T01:39:44.447Z,83.16
2022-11-14T01:40:46.585Z,81.75
2022-11-14T01:41:48.102Z,82.09
2022-11-14T01:43:11.423Z,81.32
2022-11-14T01:44:17.914Z,80.51
2022-11-14T01:45:50.586Z,80.44
2022-11-14T01:46:56.298Z,79.58
2022-11-14T01:47:57.836Z,79.98
2022-11-14T01:49:05.088Z,79.39
2022-11-14T01:50:06.887Z,77.15
2022-11-14T01:51:23.726Z,76.81
2022-11-14T01:52:33.511Z,76.18
2022-11-14T01:53:35.082Z,76.58
2022-11-14T01:54:38.906Z,77.85
2022-11-14T01:55:40.584Z,79.29
2022-11-14T01:56:52.978Z,80.87
2022-11-14T01:57:55.317Z,80.99
2022-11-14T01:59:07.424Z,81.33
2022-11-14T02:00:12.329Z,82.08
2022-11-14T02:01:14.065Z,82.01
2022-11-14T02:02:18.939Z,82.24
2022-11-14T02:03:21.088Z,82.61
2022-11-14T02:04:35.289Z,82.83
2022-11-14T02:05:37.728Z,83.12
2022-11-14T02:06:40.341Z,83.68
2022-11-14T02:07:41.912Z,84.74
2022-11-14T02:08:44.597Z,85.58
2022-11-14T02:09:47.715Z,85.81
2022-11-14T02:10:49.302Z,87.41
2022-11-14T02:11:53.661Z,86.91
2022-11-14T02:12:55.330Z,88.20
2022-11-14T02:13:58.379Z,88.86
2022-11-14T02:15:00.985Z,88.89
2022-11-14T02:16:02.625Z,89.88
2022-11-14T02:17:31.551Z,90.77
2022-11-14T02:18:26.197Z,90.59
2022-11-14T02:19:48.909Z,90.30
2022-11-14T02:20:50.428Z,90.72
2022-11-14T02:21:52.093Z,92.24
2022-11-14T02:22:53.638Z,92.78
2022-11-14T02:23:55.166Z,92.99
2022-11-14T02:24:56.746Z,93.83
2022-11-14T02:25:58.720Z,93.40
2022-11-14T02:27:00.267Z,94.20
2022-11-14T02:28:02.856Z,93.81
2022-11-14T02:29:05.694Z,92.75
2022-11-14T02:30:11.318Z,92.45
2022-11-14T02:31:13.133Z,92.61
2022-11-14T02:32:14.698Z,92.73
2022-11-14T02:33:16.664Z,92.21
2022-11-14T02:34:20.294Z,91.73
2022-11-14T02:35:21.961Z,91.06
2022-11-14T02:36:23.491Z,90.86
2022-11-14T02:37:25.016Z,90.78
2022-11-14T02:38:26.541Z,90.69
2022-11-14T02:39:28.197Z,89.58
2022-11-14T02:40:29.786Z,89.35
2022-11-14T02:41:31.583Z,89.89
2022-11-14T02:42:33.167Z,88.48
2022-11-14T02:43:34.844Z,88.30
2022-11-14T02:44:36.393Z,88.24
2022-11-14T02:45:37.926Z,87.18
2022-11-14T02:46:39.615Z,87.62
2022-11-14T02:47:41.141Z,86.91
2022-11-14T02:48:42.663Z,86.67
2022-11-14T02:49:44.197Z,86.76
2022-11-14T02:50:48.902Z,86.71
2022-11-14T02:51:50.416Z,86.75
2022-11-14T02:52:53.880Z,86.07
2022-11-14T02:53:55.421Z,86.45
2022-11-14T02:54:57.007Z,85.68
2022-11-14T02:55:58.547Z,85.18
2022-11-14T02:57:00.082Z,85.60
2022-11-14T02:58:01.607Z,86.77
2022-11-14T02:59:03.331Z,86.96
2022-11-14T03:00:11.692Z,88.11
2022-11-14T03:01:21.201Z,87.58
2022-11-14T03:02:23.190Z,88.47
2022-11-14T03:03:24.711Z,88.44
2022-11-14T03:04:26.350Z,86.85
2022-11-14T03:05:27.884Z,86.45
2022-11-14T03:06:29.406Z,86.93
2022-11-14T03:07:31.168Z,86.91
2022-11-14T03:08:33.034Z,86.72
2022-11-14T03:09:34.556Z,86.77
2022-11-14T03:10:36.080Z,87.19
2022-11-14T03:11:39.051Z,87.07
2022-11-14T03:12:40.635Z,87.05
2022-11-14T03:13:42.220Z,87.14
2022-11-14T03:14:44.107Z,86.51
2022-11-14T03:15:46.041Z,86.71
2022-11-14T03:16:47.550Z,86.42
2022-11-14T03:17:49.495Z,85.83
2022-11-14T03:18:51.048Z,85.22
2022-11-14T03:19:52.587Z,85.93
2022-11-14T03:20:54.131Z,84.88
2022-11-14T03:21:55.691Z,84.83
2022-11-14T03:22:57.245Z,84.66
2022-11-14T03:23:58.852Z,84.24
2022-11-14T03:25:00.680Z,84.04
2022-11-14T03:26:03.911Z,83.57
2022-11-14T03:27:05.469Z,83.11
2022-11-14T03:28:07.005Z,83.06
2022-11-14T03:29:08.582Z,82.21
2022-11-14T03:30:10.798Z,82.07
2022-11-14T03:31:14.211Z,81.44
2022-11-14T03:32:16.512Z,81.63
2022-11-14T03:33:18.037Z,79.94
2022-11-14T03:34:19.594Z,80.34
2022-11-14T03:35:21.144Z,79.98
2022-11-14T03:36:22.912Z,79.63
2022-11-14T03:37:24.471Z,79.37
2022-11-14T03:38:26.044Z,78.60
2022-11-14T03:39:27.729Z,79.54
2022-11-14T03:40:29.313Z,79.89
2022-11-14T03:41:31.202Z,79.61
2022-11-14T03:42:36.248Z,79.60
2022-11-14T03:43:37.832Z,79.43
2022-11-14T03:44:39.532Z,79.07
2022-11-14T03:45:41.065Z,79.11
2022-11-14T03:46:42.614Z,79.46
2022-11-14T03:47:44.170Z,78.88
2022-11-14T03:48:45.786Z,78.95
2022-11-14T03:49:47.315Z,78.26
2022-11-14T03:50:48.840Z,78.60
2022-11-14T03:51:50.878Z,78.00
2022-11-14T03:52:52.403Z,78.50
2022-11-14T03:53:54.002Z,77.69
2022-11-14T03:54:55.534Z,78.29
2022-11-14T03:55:57.092Z,77.63
2022-11-14T03:56:58.646Z,77.46
2022-11-14T03:58:00.326Z,78.00
2022-11-14T03:59:01.984Z,78.10
2022-11-14T04:00:04.438Z,77.83
2022-11-14T04:01:06.064Z,78.30
2022-11-14T04:02:07.567Z,77.83
2022-11-14T04:03:09.094Z,77.58
2022-11-14T04:04:12.672Z,77.51
2022-11-14T04:05:14.587Z,77.69
2022-11-14T04:06:16.244Z,77.26
2022-11-14T04:07:17.864Z,77.00
2022-11-14T04:08:19.535Z,76.75
2022-11-14T04:09:21.120Z,76.65
2022-11-14T04:10:23.022Z,76.38
2022-11-14T04:11:24.569Z,76.49
2022-11-14T04:12:26.312Z,76.41
2022-11-14T04:13:27.903Z,75.77
2022-11-14T04:14:29.541Z,76.25
2022-11-14T04:15:31.268Z,77.56
2022-11-14T04:16:32.830Z,79.83
2022-11-14T04:17:39.512Z,81.08
2022-11-14T04:18:41.403Z,81.40
2022-11-14T04:19:43.059Z,81.89
2022-11-14T04:20:44.588Z,81.13
2022-11-14T04:21:46.134Z,81.88
2022-11-14T04:22:47.724Z,81.73
2022-11-14T04:23:49.304Z,81.41
2022-11-14T04:24:50.831Z,81.38
2022-11-14T04:25:52.364Z,81.83
2022-11-14T04:26:53.940Z,81.06
2022-11-14T04:27:55.499Z,81.64
2022-11-14T04:28:57.011Z,82.22
2022-11-14T04:29:58.523Z,82.96
2022-11-14T04:31:01.255Z,83.54
2022-11-14T04:32:02.880Z,84.41
2022-11-14T04:33:04.807Z,84.00
2022-11-14T04:34:06.313Z,84.28
2022-11-14T04:35:08.306Z,84.55
2022-11-14T04:36:10.355Z,85.27
2022-11-14T04:37:12.062Z,84.62
2022-11-14T04:38:13.843Z,85.83
2022-11-14T04:39:15.361Z,86.23
2022-11-14T04:40:17.070Z,87.08
2022-11-14T04:41:18.676Z,86.12
2022-11-14T04:42:20.182Z,85.70
2022-11-14T04:43:21.895Z,85.78
2022-11-14T04:44:23.424Z,86.08
2022-11-14T04:45:24.977Z,87.00
2022-11-14T04:46:26.562Z,87.44
2022-11-14T04:47:28.103Z,88.69
2022-11-14T04:48:29.852Z,88.99
2022-11-14T04:49:31.581Z,89.50
2022-11-14T04:50:33.102Z,88.75
2022-11-14T04:51:34.629Z,90.10
2022-11-14T04:52:36.464Z,90.34
2022-11-14T04:53:38.270Z,91.37
2022-11-14T04:54:39.844Z,91.79
2022-11-14T04:55:41.376Z,90.70
2022-11-14T04:56:43.170Z,90.24
2022-11-14T04:57:44.896Z,90.48
2022-11-14T04:58:46.392Z,90.29
2022-11-14T04:59:48.021Z,90.43
2022-11-14T05:00:49.561Z,90.48
2022-11-14T05:01:51.192Z,89.84
2022-11-14T05:02:52.833Z,90.28
2022-11-14T05:03:54.584Z,90.12
2022-11-14T05:04:56.207Z,90.55
2022-11-14T05:06:00.961Z,91.20
2022-11-14T05:07:02.605Z,91.63
2022-11-14T05:08:04.441Z,90.95
2022-11-14T05:09:06.081Z,91.54
2022-11-14T05:10:08.578Z,92.02
2022-11-14T05:11:18.390Z,92.58
2022-11-14T05:12:20.076Z,92.10
2022-11-14T05:13:21.875Z,92.35
2022-11-14T05:14:23.412Z,92.42
2022-11-14T05:15:24.977Z,92.84
2022-11-14T05:16:26.562Z,99.28
2022-11-14T05:17:28.361Z,100.00
2022-11-14T05:18:30.167Z,100.00
2022-11-14T05:19:31.906Z,98.49
2022-11-14T05:20:33.465Z,96.47
2022-11-14T05:21:34.996Z,94.78
2022-11-14T05:22:36.726Z,93.27
2022-11-14T05:23:38.310Z,92.30
2022-11-14T05:24:39.941Z,92.06
2022-11-14T05:25:41.550Z,90.97
2022-11-14T05:26:43.109Z,90.19
2022-11-14T05:27:44.615Z,90.36
2022-11-14T05:28:46.205Z,89.34
2022-11-14T05:29:47.747Z,88.78
2022-11-14T05:30:49.242Z,88.75
2022-11-14T05:31:50.766Z,89.27
2022-11-14T05:32:52.582Z,89.23
2022-11-14T05:33:54.204Z,89.38
2022-11-14T05:34:55.755Z,89.53
2022-11-14T05:36:02.503Z,88.92
2022-11-14T05:37:04.137Z,88.80
2022-11-14T05:38:05.665Z,88.38
2022-11-14T05:39:07.539Z,88.73
2022-11-14T05:40:09.783Z,89.23
2022-11-14T05:41:20.256Z,89.17
2022-11-14T05:42:21.864Z,88.72
2022-11-14T05:43:23.505Z,87.85
2022-11-14T05:44:25.118Z,87.82
2022-11-14T05:45:26.642Z,86.55
2022-11-14T05:46:28.182Z,86.70
2022-11-14T05:47:29.821Z,86.00
2022-11-14T05:48:32.565Z,85.66
2022-11-14T05:49:34.653Z,84.72
2022-11-14T05:50:36.399Z,84.51
2022-11-14T05:51:37.953Z,84.88
2022-11-14T05:52:39.604Z,83.71
2022-11-14T05:53:41.612Z,83.67
2022-11-14T05:54:43.155Z,83.19
2022-11-14T05:55:44.671Z,83.25
2022-11-14T05:56:46.247Z,83.37
2022-11-14T05:57:47.823Z,82.70
2022-11-14T05:58:49.375Z,82.75
2022-11-14T05:59:51.011Z,83.18
2022-11-14T06:00:54.538Z,81.94
2022-11-14T06:01:56.378Z,82.04
2022-11-14T06:02:58.002Z,81.96
2022-11-14T06:03:59.624Z,80.86
2022-11-14T06:05:01.402Z,80.29
2022-11-14T06:06:05.224Z,80.27
2022-11-14T06:07:06.904Z,81.30
2022-11-14T06:08:08.504Z,80.76
2022-11-14T06:09:10.088Z,80.55
2022-11-14T06:10:11.992Z,80.76
2022-11-14T06:11:16.098Z,81.40
2022-11-14T06:12:18.190Z,82.13
2022-11-14T06:13:19.731Z,81.66
2022-11-14T06:14:21.366Z,80.95
2022-11-14T06:15:22.954Z,79.96
2022-11-14T06:16:24.866Z,80.70
2022-11-14T06:17:26.424Z,80.02
2022-11-14T06:18:30.024Z,80.38
2022-11-14T06:19:31.814Z,80.99
2022-11-14T06:20:33.356Z,80.48
2022-11-14T06:21:34.959Z,79.93
2022-11-14T06:22:36.446Z,79.71
2022-11-14T06:23:38.465Z,79.94
2022-11-14T06:24:40.034Z,80.49
2022-11-14T06:25:41.640Z,80.82
2022-11-14T06:26:43.158Z,81.46
2022-11-14T06:27:44.683Z,80.94
2022-11-14T06:28:46.546Z,80.83
2022-11-14T06:29:48.051Z,80.84
2022-11-14T06:30:49.601Z,80.94
2022-11-14T06:31:51.229Z,81.65
2022-11-14T06:32:58.808Z,81.48
2022-11-14T06:34:00.358Z,82.37
2022-11-14T06:35:01.876Z,81.85
2022-11-14T06:36:05.931Z,81.84
2022-11-14T06:37:07.433Z,80.74
2022-11-14T06:38:08.940Z,79.91
2022-11-14T06:39:10.514Z,79.93
2022-11-14T06:40:12.168Z,80.02
2022-11-14T06:41:16.321Z,81.17
2022-11-14T06:42:17.860Z,80.60
2022-11-14T06:43:19.511Z,81.01
2022-11-14T06:44:23.104Z,80.39
2022-11-14T06:45:27.054Z,79.17
2022-11-14T06:46:28.587Z,78.74
2022-11-14T06:47:30.103Z,78.61
2022-11-14T06:48:32.756Z,79.93
2022-11-14T06:49:39.367Z,79.35
2022-11-14T06:50:42.841Z,78.75
2022-11-14T06:51:44.794Z,78.33
2022-11-14T06:52:46.326Z,77.42
2022-11-14T06:53:47.968Z,76.74
2022-11-14T06:54:49.469Z,75.94
2022-11-14T06:56:24.464Z,76.07
2022-11-14T06:57:26.006Z,75.90
2022-11-14T06:58:33.634Z,75.17
2022-11-14T06:59:35.327Z,76.33
2022-11-14T07:00:36.856Z,77.01
2022-11-14T07:01:38.501Z,77.18
2022-11-14T07:02:40.092Z,77.63
2022-11-14T07:03:43.026Z,77.09
2022-11-14T07:04:44.580Z,78.49
2022-11-14T07:05:46.287Z,79.78
2022-11-14T07:06:47.830Z,79.42
2022-11-14T07:07:49.356Z,79.93
2022-11-14T07:08:52.380Z,80.02
2022-11-14T07:09:54.463Z,78.20
2022-11-14T07:11:12.062Z,78.48
2022-11-14T07:12:13.615Z,78.61
2022-11-14T07:13:15.160Z,84.01
2022-11-14T07:14:16.692Z,78.51
2022-11-14T07:15:18.239Z,78.10
2022-11-14T07:16:21.010Z,76.69
2022-11-14T07:17:24.949Z,76.12
2022-11-14T07:18:33.993Z,75.96
2022-11-14T07:19:35.800Z,76.93
2022-11-14T07:20:37.652Z,84.66
2022-11-14T07:21:39.554Z,84.72
2022-11-14T07:22:41.089Z,77.96
2022-11-14T07:23:42.720Z,74.78
2022-11-14T07:24:44.248Z,73.98
2022-11-14T07:25:45.766Z,73.49
2022-11-14T07:26:47.333Z,71.90
2022-11-14T07:27:48.974Z,71.41
2022-11-14T07:28:53.615Z,71.56
2022-11-14T07:29:57.111Z,70.26
2022-11-14T07:30:58.613Z,70.44
2022-11-14T07:32:00.183Z,69.92
2022-11-14T07:33:01.790Z,70.43
2022-11-14T07:34:03.419Z,69.10
2022-11-14T07:35:05.286Z,70.41
2022-11-14T07:36:08.234Z,70.28
2022-11-14T07:37:09.810Z,69.95
2022-11-14T07:38:11.424Z,72.18
2022-11-14T07:39:13.051Z,73.36
2022-11-14T07:40:15.146Z,73.07
2022-11-14T07:41:17.056Z,73.34
2022-11-14T07:42:18.584Z,73.80
2022-11-14T07:43:20.266Z,73.36
2022-11-14T07:44:21.806Z,72.88
2022-11-14T07:45:23.478Z,71.58
2022-11-14T07:46:25.220Z,71.16
2022-11-14T07:47:26.941Z,71.96
2022-11-14T07:48:29.941Z,72.98
2022-11-14T07:49:32.166Z,72.36
2022-11-14T07:50:33.773Z,71.46
2022-11-14T07:51:36.673Z,70.77
2022-11-14T07:52:38.399Z,70.89
2022-11-14T07:53:40.915Z,70.63
2022-11-14T07:54:42.590Z,70.34
2022-11-14T07:55:44.139Z,71.18
2022-11-14T07:56:45.699Z,70.58
2022-11-14T07:57:49.417Z,70.93
2022-11-14T07:58:51.356Z,70.73
2022-11-14T07:59:52.901Z,70.92
2022-11-14T08:00:54.488Z,71.21
2022-11-14T08:01:56.042Z,70.35
2022-11-14T08:02:57.703Z,71.84
2022-11-14T08:03:59.343Z,71.83
2022-11-14T08:05:01.322Z,71.21
2022-11-14T08:06:11.670Z,71.88
2022-11-14T08:07:13.279Z,70.47
2022-11-14T08:08:14.877Z,70.84
2022-11-14T08:09:16.469Z,72.42
2022-11-14T08:10:18.591Z,72.76
2022-11-14T08:11:40.097Z,73.29
2022-11-14T08:12:41.713Z,72.37
2022-11-14T08:13:43.192Z,73.53
2022-11-14T08:14:44.707Z,73.44
2022-11-14T08:15:46.226Z,72.97
2022-11-14T08:16:47.835Z,72.18
2022-11-14T08:17:49.340Z,71.29
2022-11-14T08:18:50.843Z,71.66
2022-11-14T08:19:52.407Z,71.16
2022-11-14T08:20:57.519Z,68.76
2022-11-14T08:21:59.031Z,68.32
2022-11-14T08:23:09.723Z,69.26
2022-11-14T08:24:11.360Z,69.01
2022-11-14T08:25:13.116Z,69.28
2022-11-14T08:26:14.664Z,70.03
2022-11-14T08:27:16.261Z,70.52
2022-11-14T08:28:17.892Z,70.34
2022-11-14T08:29:19.399Z,70.33
2022-11-14T08:30:20.874Z,69.38
2022-11-14T08:31:22.681Z,68.07
2022-11-14T08:32:24.492Z,67.25
2022-11-14T08:33:26.019Z,68.98
2022-11-14T08:34:29.299Z,71.00
2022-11-14T08:35:31.200Z,70.88
2022-11-14T08:36:32.743Z,71.16
2022-11-14T08:37:34.438Z,70.30
2022-11-14T08:38:35.973Z,70.83
2022-11-14T08:39:37.700Z,70.24
2022-11-14T08:40:39.198Z,70.15
2022-11-14T08:41:40.817Z,69.92
2022-11-14T08:42:42.393Z,70.04
2022-11-14T08:43:43.939Z,69.93
2022-11-14T08:44:50.766Z,70.13
2022-11-14T08:46:01.042Z,69.22
2022-11-14T08:47:03.845Z,67.84
2022-11-14T08:48:05.896Z,67.96
2022-11-14T08:49:07.422Z,68.89
2022-11-14T08:50:09.090Z,69.29
2022-11-14T08:51:10.655Z,68.89
2022-11-14T08:52:16.529Z,69.48
2022-11-14T08:53:18.665Z,69.61
2022-11-14T08:54:20.538Z,68.70
2022-11-14T08:55:22.089Z,68.48
2022-11-14T08:56:23.762Z,69.21
2022-11-14T08:57:25.316Z,68.91
2022-11-14T08:58:31.854Z,68.96
2022-11-14T08:59:33.774Z,67.40
2022-11-14T09:00:35.530Z,67.52
2022-11-14T09:01:37.124Z,68.60
2022-11-14T09:02:38.703Z,68.55
2022-11-14T09:03:40.293Z,67.60
2022-11-14T09:04:42.254Z,67.10
2022-11-14T09:05:44.780Z,67.11
2022-11-14T09:06:46.460Z,66.21
2022-11-14T09:07:48.130Z,66.46
2022-11-14T09:08:49.697Z,65.36
2022-11-14T09:09:51.288Z,65.85
2022-11-14T09:10:52.809Z,65.46
2022-11-14T09:11:54.470Z,66.15
2022-11-14T09:13:00.464Z,66.78
2022-11-14T09:14:02.731Z,66.83
2022-11-14T09:15:04.625Z,67.09
2022-11-14T09:16:06.349Z,67.01
2022-11-14T09:17:07.908Z,66.85
2022-11-14T09:18:10.840Z,66.54
2022-11-14T09:19:12.408Z,67.92
2022-11-14T09:20:14.740Z,65.77
2022-11-14T09:21:16.285Z,64.71
2022-11-14T09:22:17.997Z,64.40
2022-11-14T09:23:19.704Z,64.18
2022-11-14T09:24:21.396Z,63.46
2022-11-14T09:25:23.021Z,63.69
2022-11-14T09:26:24.681Z,63.37
2022-11-14T09:27:27.361Z,62.05
2022-11-14T09:28:28.939Z,62.47
2022-11-14T09:29:30.502Z,62.94
2022-11-14T09:30:33.900Z,62.15
2022-11-14T09:31:35.438Z,61.70
2022-11-14T09:32:36.977Z,61.53
2022-11-14T09:33:38.580Z,61.38
2022-11-14T09:34:43.119Z,61.47
2022-11-14T09:35:44.693Z,62.21
2022-11-14T09:36:46.771Z,62.22
2022-11-14T09:37:48.329Z,62.61
2022-11-14T09:38:51.731Z,63.35
2022-11-14T09:39:53.285Z,63.82
2022-11-14T09:41:13.616Z,63.63
2022-11-14T09:42:18.035Z,63.50
2022-11-14T09:43:31.991Z,62.39
2022-11-14T09:44:33.944Z,62.91
2022-11-14T09:45:42.276Z,63.96
2022-11-14T09:46:49.378Z,72.70
2022-11-14T09:47:56.042Z,76.11
2022-11-14T09:48:58.092Z,67.50
2022-11-14T09:50:07.281Z,64.10
2022-11-14T09:51:19.601Z,64.78
2022-11-14T09:52:37.374Z,66.73
2022-11-14T09:53:57.832Z,63.08
2022-11-14T09:55:04.262Z,60.46
2022-11-14T09:56:10.004Z,58.97
2022-11-14T09:57:20.157Z,60.28
2022-11-14T09:58:22.157Z,60.41
2022-11-14T09:59:24.178Z,61.59
2022-11-14T10:00:29.810Z,59.18
2022-11-14T10:01:46.384Z,59.00
2022-11-14T10:03:06.745Z,58.36
2022-11-14T10:04:32.000Z,58.29
2022-11-14T10:05:50.403Z,59.19
2022-11-14T10:07:20.424Z,61.13
2022-11-14T10:08:34.320Z,61.40
2022-11-14T10:09:57.144Z,61.39
2022-11-14T10:11:22.354Z,60.28
2022-11-14T10:12:45.266Z,61.28
2022-11-14T10:13:49.536Z,61.48
2022-11-14T10:15:21.833Z,61.57
2022-11-14T10:16:41.341Z,61.60
2022-11-14T10:18:17.852Z,62.32
2022-11-14T10:19:42.409Z,60.87
2022-11-14T10:20:47.292Z,62.11
2022-11-14T10:22:20.337Z,62.15
2022-11-14T10:23:51.605Z,63.49
2022-11-14T10:25:22.541Z,62.92
2022-11-14T10:26:30.215Z,63.80
2022-11-14T10:27:43.085Z,63.31
2022-11-14T10:28:53.844Z,63.02
2022-11-14T10:30:08.709Z,63.47
2022-11-14T10:31:19.250Z,64.26
2022-11-14T10:33:11.697Z,63.13
2022-11-14T10:34:26.470Z,62.68
2022-11-14T10:35:35.292Z,63.19
2022-11-14T10:37:24.402Z,62.34
2022-11-14T10:38:40.109Z,62.23
2022-11-14T10:39:50.033Z,60.96
2022-11-14T10:40:55.421Z,61.04
2022-11-14T10:42:06.194Z,61.50
2022-11-14T10:43:30.672Z,61.72
2022-11-14T10:44:38.659Z,61.71
2022-11-14T10:45:50.964Z,60.48
2022-11-14T10:47:01.382Z,61.64
2022-11-14T10:48:36.555Z,60.62
2022-11-14T10:49:38.994Z,60.32
2022-11-14T10:50:51.801Z,59.99
2022-11-14T10:51:57.381Z,59.49
2022-11-14T10:53:04.301Z,59.67
2022-11-14T10:54:17.488Z,59.47
2022-11-14T10:55:24.853Z,59.72
2022-11-14T10:56:48.742Z,59.54
2022-11-14T10:57:50.372Z,58.84
2022-11-14T10:58:52.125Z,58.71
2022-11-14T10:59:55.505Z,58.69
2022-11-14T11:01:19.114Z,58.67
2022-11-14T11:02:20.679Z,57.66
2022-11-14T11:03:41.057Z,58.20
2022-11-14T11:04:44.152Z,59.02
2022-11-14T11:05:47.422Z,58.70
2022-11-14T11:06:55.264Z,58.70
2022-11-14T11:08:41.909Z,58.13
2022-11-14T11:10:00.053Z,58.94
2022-11-14T11:11:20.443Z,58.68
2022-11-14T11:12:25.189Z,59.29
2022-11-14T11:13:57.681Z,58.37
2022-11-14T11:15:19.706Z,57.66
2022-11-14T11:16:26.777Z,57.36
2022-11-14T11:17:35.069Z,57.04
2022-11-14T11:18:38.856Z,57.71
2022-11-14T11:19:41.137Z,57.51
2022-11-14T11:20:42.659Z,57.36
2022-11-14T11:21:50.402Z,57.33
2022-11-14T11:23:05.255Z,57.57
2022-11-14T11:24:09.091Z,57.41
2022-11-14T11:25:31.491Z,57.64
2022-11-14T11:26:33.157Z,57.05
2022-11-14T11:27:34.703Z,57.85
2022-11-14T11:28:37.359Z,57.62
2022-11-14T11:29:38.910Z,57.73
2022-11-14T11:30:54.586Z,57.43
2022-11-14T11:31:58.679Z,57.00
2022-11-14T11:33:23.809Z,56.96
2022-11-14T11:34:29.180Z,56.49
2022-11-14T11:35:30.844Z,56.18
2022-11-14T11:36:47.134Z,57.26
2022-11-14T11:37:57.251Z,56.67
2022-11-14T11:39:00.018Z,56.79
2022-11-14T11:40:04.850Z,55.83
2022-11-14T11:42:07.717Z,55.89
2022-11-14T11:43:52.522Z,57.11
2022-11-14T11:44:50.559Z,57.26
2022-11-14T11:45:54.975Z,56.33
2022-11-14T11:47:02.900Z,56.72
2022-11-14T11:48:18.881Z,55.88
2022-11-14T11:49:48.673Z,54.64
2022-11-14T11:50:53.747Z,56.03
2022-11-14T11:51:57.061Z,55.42
2022-11-14T11:53:16.663Z,55.18
2022-11-14T11:54:24.781Z,55.21
2022-11-14T11:55:36.501Z,54.82
2022-11-14T11:56:40.278Z,55.94
2022-11-14T11:58:23.738Z,55.27
2022-11-14T12:00:15.915Z,54.29
2022-11-14T12:01:18.305Z,54.77
2022-11-14T12:02:24.798Z,54.29
2022-11-14T12:03:26.982Z,54.41
2022-11-14T12:04:29.860Z,54.56
2022-11-14T12:05:34.215Z,56.00
2022-11-14T12:06:46.029Z,56.02
2022-11-14T12:08:15.958Z,56.85
2022-11-14T12:10:03.180Z,56.67
2022-11-14T12:10:57.008Z,56.34
2022-11-14T12:12:05.903Z,57.07
2022-11-14T12:13:25.725Z,56.65
2022-11-14T12:14:54.569Z,55.88
2022-11-14T12:16:37.574Z,56.23
2022-11-14T12:17:56.919Z,56.49
2022-11-14T12:19:16.958Z,55.84
2022-11-14T12:20:53.950Z,55.45
2022-11-14T12:22:32.811Z,55.78
2022-11-14T12:24:03.151Z,55.74
2022-11-14T12:25:22.673Z,55.42
2022-11-14T12:26:47.114Z,54.79
2022-11-14T12:28:36.702Z,55.41
2022-11-14T12:29:47.615Z,54.81
2022-11-14T12:30:55.641Z,55.66
2022-11-14T12:32:04.287Z,55.19
2022-11-14T12:33:19.168Z,55.47
2022-11-14T12:34:29.894Z,55.23
2022-11-14T12:35:34.664Z,55.46
2022-11-14T12:36:38.415Z,54.96
2022-11-14T12:37:46.792Z,54.96
2022-11-14T12:38:53.996Z,55.82
2022-11-14T12:40:02.440Z,55.41
2022-11-14T12:41:04.267Z,56.34
2022-11-14T12:42:10.373Z,56.14
2022-11-14T12:43:43.161Z,55.21
2022-11-14T12:44:45.095Z,55.12
2022-11-14T12:45:52.451Z,56.03
2022-11-14T12:47:05.880Z,55.70
2022-11-14T12:48:31.014Z,55.19
2022-11-14T12:49:48.468Z,54.31
2022-11-14T12:50:50.307Z,54.43
2022-11-14T12:51:52.017Z,55.09
2022-11-14T12:52:56.434Z,54.38
2022-11-14T12:53:58.264Z,54.41
2022-11-14T12:55:00.034Z,54.83
2022-11-14T12:56:23.084Z,55.71
2022-11-14T12:57:53.601Z,55.33
2022-11-14T12:59:19.419Z,55.23
2022-11-14T13:00:21.084Z,54.34
2022-11-14T13:01:49.174Z,54.79
2022-11-14T13:03:19.403Z,54.91
2022-11-14T13:04:38.699Z,55.28
2022-11-14T13:06:18.390Z,55.28
2022-11-14T13:07:42.798Z,55.42
2022-11-14T13:08:50.533Z,55.13
2022-11-14T13:10:10.010Z,54.94
2022-11-14T13:11:53.902Z,54.70
2022-11-14T13:13:31.277Z,54.50
2022-11-14T13:15:14.144Z,54.44
2022-11-14T13:16:49.093Z,55.39
2022-11-14T13:18:22.121Z,54.55
2022-11-14T13:19:42.466Z,54.39
2022-11-14T13:21:02.768Z,54.77
2022-11-14T13:22:15.920Z,54.46
2022-11-14T13:23:26.249Z,54.30
2022-11-14T13:24:59.809Z,53.65
2022-11-14T13:26:10.396Z,54.25
2022-11-14T13:28:00.149Z,55.69
2022-11-14T13:28:54.268Z,55.54
2022-11-14T13:29:57.857Z,54.28
2022-11-14T13:31:17.622Z,55.03
2022-11-14T13:32:40.656Z,54.74
2022-11-14T13:33:50.804Z,54.12
2022-11-14T13:34:59.679Z,53.94
2022-11-14T13:36:05.497Z,53.58
2022-11-14T13:37:26.746Z,53.14
2022-11-14T13:38:28.257Z,53.36
2022-11-14T13:39:35.710Z,53.26
2022-11-14T13:40:48.686Z,53.17
2022-11-14T13:42:20.091Z,53.35
2022-11-14T13:43:49.646Z,53.31
2022-11-14T13:45:17.636Z,53.90
2022-11-14T13:46:45.951Z,54.04
2022-11-14T13:48:17.851Z,53.92
2022-11-14T13:49:50.249Z,53.17
2022-11-14T13:51:06.266Z,53.80
2022-11-14T13:52:17.257Z,54.26
2022-11-14T13:53:24.800Z,53.86
2022-11-14T13:54:26.388Z,54.26
2022-11-14T13:55:51.304Z,54.32
2022-11-14T13:57:20.628Z,52.91
2022-11-14T13:58:59.362Z,53.50
2022-11-14T14:00:20.373Z,53.76
2022-11-14T14:01:31.691Z,54.21
2022-11-14T14:02:44.799Z,53.45
2022-11-14T14:03:59.580Z,53.77
2022-11-14T14:05:31.430Z,54.36
2022-11-14T14:06:33.201Z,55.28
2022-11-14T14:08:01.164Z,53.95
2022-11-14T14:09:18.423Z,54.05
2022-11-14T14:10:22.869Z,53.56
2022-11-14T14:11:32.534Z,53.19
2022-11-14T14:13:08.130Z,53.64
2022-11-14T14:14:24.660Z,53.73